createdAt,value
2023-05-01T00:00:06.619Z,100192.16
2023-05-01T00:02:34.773Z,100197.66
2023-05-01T00:05:03.090Z,100190.66
2023-05-01T00:07:32.003Z,100185.38
2023-05-01T00:10:02.063Z,100179.25
2023-05-01T00:12:30.301Z,100185.56
2023-05-01T00:14:58.376Z,100185.72
2023-05-01T00:17:27.274Z,100180.59
2023-05-01T00:19:55.722Z,100178.75
2023-05-01T00:22:23.887Z,100185.00
2023-05-01T00:24:51.976Z,100175.56
2023-05-01T00:27:21.438Z,100177.25
2023-05-01T00:29:49.712Z,100166.03
2023-05-01T00:32:17.981Z,100168.81
2023-05-01T00:34:48.522Z,100176.09
2023-05-01T00:37:17.580Z,100180.28
2023-05-01T00:39:45.826Z,100175.78
2023-05-01T00:42:13.903Z,100170.84
2023-05-01T00:44:43.417Z,100182.59
2023-05-01T00:47:11.926Z,100186.19
2023-05-01T00:49:41.960Z,100183.16
2023-05-01T00:52:10.238Z,100182.81
2023-05-01T00:54:39.622Z,100187.53
2023-05-01T00:57:08.384Z,100185.50
2023-05-01T00:59:36.504Z,100185.78
2023-05-01T01:02:06.771Z,100187.88
2023-05-01T01:04:34.939Z,100189.00
2023-05-01T01:07:12.087Z,100180.50
2023-05-01T01:09:51.721Z,100177.09
2023-05-01T01:12:26.497Z,100182.50
2023-05-01T01:15:00.666Z,100184.31
2023-05-01T01:17:37.850Z,100187.34
2023-05-01T01:20:20.715Z,100184.75
2023-05-01T01:22:54.537Z,100190.19
2023-05-01T01:26:08.505Z,100183.59
2023-05-01T01:29:02.219Z,100182.38
2023-05-01T01:31:35.132Z,100174.69
2023-05-01T01:34:14.514Z,100174.69
2023-05-01T01:36:50.733Z,100174.50
2023-05-01T01:39:30.270Z,100170.97
2023-05-01T01:42:01.253Z,100176.09
2023-05-01T01:44:35.002Z,100178.78
2023-05-01T01:47:09.227Z,100182.47
2023-05-01T01:49:42.401Z,100188.53
2023-05-01T01:52:14.332Z,100181.75
2023-05-01T01:54:47.272Z,100182.75
2023-05-01T01:57:18.350Z,100171.56
2023-05-01T01:59:49.708Z,100178.59
2023-05-01T02:02:20.193Z,100182.59
2023-05-01T02:04:50.671Z,100188.25
2023-05-01T02:07:20.480Z,100183.41
2023-05-01T02:09:51.846Z,100181.63
2023-05-01T02:12:21.123Z,100168.66
2023-05-01T02:14:50.513Z,100181.59
2023-05-01T02:17:21.063Z,100176.09
2023-05-01T02:19:55.503Z,100173.25
2023-05-01T02:22:26.069Z,100173.81
2023-05-01T02:24:55.449Z,100177.84
2023-05-01T02:27:36.210Z,100170.66
2023-05-01T02:30:05.715Z,100170.53
2023-05-01T02:32:34.423Z,100174.63
2023-05-01T02:35:03.907Z,100174.34
2023-05-01T02:37:32.492Z,100176.75
2023-05-01T02:40:00.774Z,100180.88
2023-05-01T02:42:30.372Z,100172.59
2023-05-01T02:45:01.744Z,100167.72
2023-05-01T02:47:33.423Z,100178.78
2023-05-01T02:50:04.086Z,100175.63
2023-05-01T02:52:32.724Z,100175.31
2023-05-01T02:55:00.958Z,100169.28
2023-05-01T02:57:29.145Z,100170.81
2023-05-01T02:59:57.582Z,100179.00
2023-05-01T03:02:26.015Z,100176.94
2023-05-01T03:04:54.047Z,100179.06
2023-05-01T03:07:23.575Z,100183.34
2023-05-01T03:09:52.049Z,100185.41
2023-05-01T03:12:20.285Z,100186.09
2023-05-01T03:14:48.395Z,100184.84
2023-05-01T03:17:16.682Z,100184.91
2023-05-01T03:19:44.791Z,100189.19
2023-05-01T03:22:12.875Z,100188.34
2023-05-01T03:24:42.301Z,100194.38
2023-05-01T03:27:10.349Z,100199.28
2023-05-01T03:29:39.168Z,100197.69
2023-05-01T03:32:07.846Z,100199.50
2023-05-01T03:34:36.260Z,100202.84
2023-05-01T03:37:04.435Z,100197.69
2023-05-01T03:39:32.798Z,100196.63
2023-05-01T03:42:02.513Z,100201.66
2023-05-01T03:44:30.560Z,100198.97
2023-05-01T03:46:58.707Z,100196.94
2023-05-01T03:49:26.776Z,100194.97
2023-05-01T03:51:55.099Z,100195.31
2023-05-01T03:54:23.203Z,100200.84
2023-05-01T03:56:51.319Z,100198.81
2023-05-01T03:59:20.797Z,100195.75
2023-05-01T04:01:48.885Z,100187.81
2023-05-01T04:04:17.110Z,100199.75
2023-05-01T04:06:45.391Z,100194.75
2023-05-01T04:09:13.564Z,100192.41
2023-05-01T04:11:41.591Z,100192.19
2023-05-01T04:14:09.714Z,100186.75
2023-05-01T04:16:39.424Z,100183.16
2023-05-01T04:19:07.868Z,100180.59
2023-05-01T04:21:35.959Z,100183.16
2023-05-01T04:24:04.200Z,100182.38
2023-05-01T04:26:32.401Z,100190.22
2023-05-01T04:29:01.603Z,100182.41
2023-05-01T04:31:29.925Z,100180.44
2023-05-01T04:33:59.841Z,100185.22
2023-05-01T04:36:27.966Z,100184.03
2023-05-01T04:38:56.052Z,100182.41
2023-05-01T04:41:24.091Z,100178.13
2023-05-01T04:43:52.120Z,100183.69
2023-05-01T04:46:20.217Z,100189.94
2023-05-01T04:48:48.370Z,100185.50
2023-05-01T04:51:17.781Z,100188.13
2023-05-01T04:53:45.841Z,100188.03
2023-05-01T04:56:13.958Z,100192.19
2023-05-01T04:58:42.304Z,100194.50
2023-05-01T05:01:10.363Z,100194.94
2023-05-01T05:03:38.644Z,100192.63
2023-05-01T05:06:06.832Z,100191.63
2023-05-01T05:08:36.432Z,100201.25
2023-05-01T05:11:04.558Z,100200.34
2023-05-01T05:13:32.729Z,100198.41
2023-05-01T05:16:01.067Z,100198.25
2023-05-01T05:18:29.280Z,100204.47
2023-05-01T05:20:57.420Z,100199.56
2023-05-01T05:23:25.412Z,100202.41
2023-05-01T05:25:54.922Z,100198.88
2023-05-01T05:28:24.043Z,100197.72
2023-05-01T05:30:52.430Z,100195.81
2023-05-01T05:33:20.490Z,100203.44
2023-05-01T05:35:49.123Z,100204.69
2023-05-01T05:38:17.369Z,100215.63
2023-05-01T05:40:45.422Z,100209.47
2023-05-01T05:43:14.748Z,100214.44
2023-05-01T05:45:42.890Z,100216.63
2023-05-01T05:48:11.022Z,100217.47
2023-05-01T05:50:39.228Z,100222.13
2023-05-01T05:53:10.030Z,100218.63
2023-05-01T05:55:38.256Z,100227.44
2023-05-01T05:58:06.822Z,100221.28
2023-05-01T06:00:36.461Z,100232.09
2023-05-01T06:03:04.932Z,100217.59
2023-05-01T06:05:34.420Z,100229.94
2023-05-01T06:08:02.477Z,100225.16
2023-05-01T06:10:30.532Z,100223.16
2023-05-01T06:13:01.307Z,100231.84
2023-05-01T06:15:43.984Z,100226.59
2023-05-01T06:18:12.669Z,100230.56
2023-05-01T06:20:41.017Z,100232.28
2023-05-01T06:23:10.168Z,100227.75
2023-05-01T06:25:39.157Z,100228.78
2023-05-01T06:28:07.374Z,100237.59
2023-05-01T06:30:35.393Z,100232.25
2023-05-01T06:33:05.165Z,100230.56
2023-05-01T06:35:33.328Z,100252.63
2023-05-01T06:38:01.416Z,100242.34
2023-05-01T06:40:31.774Z,100248.38
2023-05-01T06:42:59.845Z,100246.19
2023-05-01T06:45:28.045Z,100238.56
2023-05-01T06:47:56.204Z,100244.88
2023-05-01T06:50:25.824Z,100251.16
2023-05-01T06:52:53.983Z,100249.50
2023-05-01T06:55:22.512Z,100240.09
2023-05-01T06:57:50.650Z,100244.28
2023-05-01T07:00:20.626Z,100232.84
2023-05-01T07:02:48.962Z,100241.69
2023-05-01T07:05:17.166Z,100241.63
2023-05-01T07:07:58.065Z,100242.25
2023-05-01T07:10:29.340Z,100244.44
2023-05-01T07:12:57.676Z,100241.13
2023-05-01T07:15:25.688Z,100243.97
2023-05-01T07:17:53.808Z,100249.34
2023-05-01T07:20:21.913Z,100246.75
2023-05-01T07:22:51.387Z,100255.47
2023-05-01T07:25:20.418Z,100256.69
2023-05-01T07:27:48.575Z,100249.69
2023-05-01T07:30:16.616Z,100260.34
2023-05-01T07:32:45.330Z,100252.81
2023-05-01T07:35:13.724Z,100252.72
2023-05-01T07:37:41.959Z,100244.38
2023-05-01T07:40:12.656Z,100245.94
2023-05-01T07:42:40.740Z,100243.09
2023-05-01T07:45:09.766Z,100257.19
2023-05-01T07:47:38.047Z,100253.31
2023-05-01T07:50:12.484Z,100259.59
2023-05-01T07:52:40.678Z,100251.75
2023-05-01T07:55:10.060Z,100260.00
2023-05-01T07:57:39.695Z,100260.22
2023-05-01T08:00:09.342Z,100255.25
2023-05-01T08:02:37.743Z,100253.44
2023-05-01T08:05:06.476Z,100263.47
2023-05-01T08:07:34.557Z,100255.97
2023-05-01T08:10:02.884Z,100260.94
2023-05-01T08:12:31.463Z,100253.69
2023-05-01T08:15:01.113Z,100255.50
2023-05-01T08:17:29.372Z,100248.47
2023-05-01T08:19:57.927Z,100260.41
2023-05-01T08:22:26.165Z,100260.59
2023-05-01T08:24:54.259Z,100250.41
2023-05-01T08:27:22.517Z,100250.50
2023-05-01T08:29:50.730Z,100247.81
2023-05-01T08:32:20.194Z,100252.94
2023-05-01T08:34:48.435Z,100238.22
2023-05-01T08:37:17.652Z,100244.97
2023-05-01T08:39:45.763Z,100248.75
2023-05-01T08:42:14.463Z,100244.88
2023-05-01T08:44:43.435Z,100237.09
2023-05-01T08:47:16.463Z,100249.22
2023-05-01T08:49:47.409Z,100244.44
2023-05-01T08:52:17.041Z,100236.44
2023-05-01T08:54:47.017Z,100245.66
2023-05-01T08:57:15.450Z,100238.22
2023-05-01T08:59:43.525Z,100248.03
2023-05-01T09:02:11.854Z,100249.72
2023-05-01T09:04:41.317Z,100245.06
2023-05-01T09:07:11.071Z,100244.03
2023-05-01T09:09:39.202Z,100232.75
2023-05-01T09:12:14.550Z,100241.56
2023-05-01T09:14:42.800Z,100244.31
2023-05-01T09:17:11.479Z,100227.75
2023-05-01T09:19:40.884Z,100228.06
2023-05-01T09:22:11.096Z,100232.81
2023-05-01T09:24:39.203Z,100227.16
2023-05-01T09:27:07.851Z,100229.38
2023-05-01T09:29:40.697Z,100237.69
2023-05-01T09:32:16.568Z,100233.44
2023-05-01T09:34:45.340Z,100234.31
2023-05-01T09:37:28.637Z,100224.25
2023-05-01T09:40:08.615Z,100226.84
2023-05-01T09:42:39.645Z,100233.13
2023-05-01T09:45:15.360Z,100223.16
2023-05-01T09:47:44.085Z,100224.31
2023-05-01T09:50:14.583Z,100216.72
2023-05-01T09:52:52.776Z,100220.66
2023-05-01T09:55:22.687Z,100219.31
2023-05-01T09:57:51.669Z,100213.94
2023-05-01T10:00:22.217Z,100207.34
2023-05-01T10:02:51.409Z,100199.47
2023-05-01T10:05:20.213Z,100211.72
2023-05-01T10:08:00.066Z,100199.03
2023-05-01T10:10:28.460Z,100203.59
2023-05-01T10:12:56.705Z,100196.19
2023-05-01T10:15:37.268Z,100188.19
2023-05-01T10:18:06.413Z,100188.75
2023-05-01T10:20:34.526Z,100186.06
2023-05-01T10:23:04.517Z,100186.34
2023-05-01T10:25:33.799Z,100178.75
2023-05-01T10:28:04.983Z,100190.44
2023-05-01T10:30:34.016Z,100171.16
2023-05-01T10:33:02.227Z,100184.41
2023-05-01T10:35:35.700Z,100170.28
2023-05-01T10:38:08.604Z,100166.75
2023-05-01T10:40:47.417Z,100171.28
2023-05-01T10:43:21.009Z,100168.59
2023-05-01T10:45:50.003Z,100173.81
2023-05-01T10:48:54.191Z,100161.72
2023-05-01T10:51:26.604Z,100162.41
2023-05-01T10:54:28.396Z,100161.13
2023-05-01T10:56:58.738Z,100160.00
2023-05-01T10:59:27.338Z,100162.41
2023-05-01T11:01:56.063Z,100158.88
2023-05-01T11:04:54.248Z,100157.25
2023-05-01T11:07:24.270Z,100156.09
2023-05-01T11:09:57.701Z,100155.25
2023-05-01T11:12:55.437Z,100149.13
2023-05-01T11:15:32.345Z,100153.03
2023-05-01T11:18:01.495Z,100139.34
2023-05-01T11:20:50.121Z,100151.16
2023-05-01T11:23:21.879Z,100137.34
2023-05-01T11:25:51.927Z,100133.31
2023-05-01T11:28:23.614Z,100126.22
2023-05-01T11:30:52.211Z,100129.53
2023-05-01T11:33:26.132Z,100136.50
2023-05-01T11:36:02.176Z,100128.06
2023-05-01T11:38:30.572Z,100128.59
2023-05-01T11:41:04.602Z,100120.28
2023-05-01T11:43:33.088Z,100125.00
2023-05-01T11:46:04.331Z,100120.41
2023-05-01T11:48:33.342Z,100123.44
2023-05-01T11:51:01.538Z,100132.00
2023-05-01T11:53:30.742Z,100120.41
2023-05-01T11:55:59.632Z,100124.56
2023-05-01T11:58:36.694Z,100112.06
2023-05-01T12:01:07.478Z,100115.31
2023-05-01T12:03:45.288Z,100107.91
2023-05-01T12:06:14.468Z,100111.09
2023-05-01T12:08:51.368Z,100107.69
2023-05-01T12:11:20.715Z,100108.13
2023-05-01T12:13:50.455Z,100101.78
2023-05-01T12:16:18.745Z,100104.38
2023-05-01T12:18:48.394Z,100096.16
2023-05-01T12:21:18.341Z,100093.56
2023-05-01T12:23:46.684Z,100091.47
2023-05-01T12:26:19.069Z,100089.22
2023-05-01T12:29:00.942Z,100095.78
2023-05-01T12:31:30.468Z,100085.50
2023-05-01T12:34:00.050Z,100084.09
2023-05-01T12:36:30.026Z,100075.78
2023-05-01T12:39:01.626Z,100073.09
2023-05-01T12:41:40.135Z,100079.06
2023-05-01T12:44:23.934Z,100075.78
2023-05-01T12:46:56.595Z,100068.16
2023-05-01T12:49:25.383Z,100056.88
2023-05-01T12:51:56.649Z,100066.31
2023-05-01T12:54:26.406Z,100058.78
2023-05-01T12:56:54.798Z,100048.13
2023-05-01T12:59:26.505Z,100051.50
2023-05-01T13:02:02.095Z,100053.94
2023-05-01T13:04:31.105Z,100041.19
2023-05-01T13:06:59.920Z,100047.34
2023-05-01T13:09:31.063Z,100045.78
2023-05-01T13:12:00.673Z,100030.44
2023-05-01T13:14:31.084Z,100025.38
2023-05-01T13:16:59.127Z,100030.19
2023-05-01T13:19:28.920Z,100026.75
2023-05-01T13:21:58.309Z,100031.16
2023-05-01T13:24:36.714Z,100028.16
2023-05-01T13:27:06.439Z,100022.84
2023-05-01T13:29:36.485Z,100022.38
2023-05-01T13:32:06.386Z,100028.22
2023-05-01T13:34:36.526Z,100017.63
2023-05-01T13:37:04.794Z,100015.41
2023-05-01T13:39:32.856Z,100010.25
2023-05-01T13:42:06.495Z,100020.84
2023-05-01T13:44:44.720Z,100009.47
2023-05-01T13:47:17.484Z,100008.28
2023-05-01T13:49:46.697Z,100004.50
2023-05-01T13:52:18.408Z,100000.75
2023-05-01T13:54:48.297Z,99994.19
2023-05-01T13:57:17.436Z,99995.13
2023-05-01T13:59:48.294Z,99989.66
2023-05-01T14:02:27.484Z,99980.75
2023-05-01T14:04:58.164Z,99986.94
2023-05-01T14:07:27.555Z,99987.41
2023-05-01T14:09:56.833Z,99986.41
2023-05-01T14:12:28.698Z,99985.91
2023-05-01T14:14:58.636Z,99982.59
2023-05-01T14:17:32.833Z,99983.22
2023-05-01T14:20:01.111Z,99979.69
2023-05-01T14:22:30.854Z,99971.66
2023-05-01T14:24:59.564Z,99973.03
2023-05-01T14:27:27.955Z,99967.13
2023-05-01T14:29:57.393Z,99962.44
2023-05-01T14:32:26.406Z,99965.13
2023-05-01T14:34:54.459Z,99959.47
2023-05-01T14:37:22.524Z,99960.50
2023-05-01T14:39:52.437Z,99956.81
2023-05-01T14:42:20.638Z,99952.97
2023-05-01T14:44:48.995Z,99946.38
2023-05-01T14:47:21.981Z,99945.13
2023-05-01T14:49:53.464Z,99937.69
2023-05-01T14:52:22.514Z,99942.16
2023-05-01T14:54:52.554Z,99938.16
2023-05-01T14:57:20.757Z,99939.19
2023-05-01T14:59:48.766Z,99937.16
2023-05-01T15:02:18.333Z,99943.31
2023-05-01T15:04:46.449Z,99944.56
2023-05-01T15:07:14.889Z,99939.50
2023-05-01T15:09:43.306Z,99942.47
2023-05-01T15:12:11.703Z,99947.31
2023-05-01T15:14:39.727Z,99947.59
2023-05-01T15:17:08.082Z,99940.25
2023-05-01T15:19:37.515Z,99949.00
2023-05-01T15:22:05.814Z,99939.47
2023-05-01T15:24:33.841Z,99934.13
2023-05-01T15:27:03.298Z,99941.88
2023-05-01T15:29:33.576Z,99926.38
2023-05-01T15:32:12.088Z,99926.22
2023-05-01T15:34:42.988Z,99929.25
2023-05-01T15:37:11.152Z,99928.72
2023-05-01T15:39:40.425Z,99926.97
2023-05-01T15:42:08.678Z,99926.81
2023-05-01T15:44:36.735Z,99930.88
2023-05-01T15:47:04.946Z,99927.22
2023-05-01T15:49:33.033Z,99936.53
2023-05-01T15:52:03.012Z,99922.13
2023-05-01T15:54:31.073Z,99933.19
2023-05-01T15:57:01.515Z,99932.09
2023-05-01T15:59:29.794Z,99934.66
2023-05-01T16:01:57.936Z,99932.22
2023-05-01T16:04:26.060Z,99921.25
2023-05-01T16:06:54.401Z,99933.50
2023-05-01T16:09:30.685Z,99932.97
2023-05-01T16:11:59.771Z,99939.06
2023-05-01T16:14:28.009Z,99940.25
2023-05-01T16:16:56.293Z,99930.00
2023-05-01T16:19:24.730Z,99931.28
2023-05-01T16:21:52.845Z,99925.91
2023-05-01T16:24:20.913Z,99928.72
2023-05-01T16:26:50.750Z,99922.56
2023-05-01T16:29:19.848Z,99923.00
2023-05-01T16:31:48.374Z,99917.38
2023-05-01T16:34:18.342Z,99911.78
2023-05-01T16:36:47.026Z,99918.97
2023-05-01T16:39:16.494Z,99919.50
2023-05-01T16:41:46.436Z,99918.34
2023-05-01T16:44:16.630Z,99923.69
2023-05-01T16:46:47.259Z,99920.94
2023-05-01T16:49:16.556Z,99920.63
2023-05-01T16:51:45.025Z,99919.78
2023-05-01T16:54:13.094Z,99915.44
2023-05-01T16:56:41.169Z,99919.81
2023-05-01T16:59:09.378Z,99924.72
2023-05-01T17:01:39.302Z,99918.81
2023-05-01T17:04:07.879Z,99922.75
2023-05-01T17:06:36.064Z,99920.78
2023-05-01T17:09:06.918Z,99926.53
2023-05-01T17:11:35.071Z,99924.41
2023-05-01T17:14:03.621Z,99917.66
2023-05-01T17:16:33.561Z,99921.47
2023-05-01T17:19:08.886Z,99922.00
2023-05-01T17:21:37.173Z,99919.19
2023-05-01T17:24:05.678Z,99919.72
2023-05-01T17:26:33.990Z,99922.78
2023-05-01T17:29:03.190Z,99919.34
2023-05-01T17:31:34.626Z,99918.19
2023-05-01T17:34:04.429Z,99918.03
2023-05-01T17:36:33.690Z,99907.06
2023-05-01T17:39:02.417Z,99918.97
2023-05-01T17:41:30.676Z,99913.88
2023-05-01T17:43:59.501Z,99913.53
2023-05-01T17:46:27.906Z,99903.94
2023-05-01T17:48:56.153Z,99915.78
2023-05-01T17:51:25.750Z,99905.06
2023-05-01T17:53:53.920Z,99903.38
2023-05-01T17:56:22.645Z,99904.91
2023-05-01T17:58:51.182Z,99914.94
2023-05-01T18:01:19.630Z,99911.25
2023-05-01T18:03:51.744Z,99911.19
2023-05-01T18:06:20.038Z,99912.44
2023-05-01T18:08:50.609Z,99909.19
2023-05-01T18:11:19.242Z,99917.72
2023-05-01T18:13:49.762Z,99916.28
2023-05-01T18:16:18.816Z,99915.75
2023-05-01T18:18:48.809Z,99909.97
2023-05-01T18:21:17.081Z,99908.81
2023-05-01T18:23:48.655Z,99921.06
2023-05-01T18:26:19.592Z,99915.91
2023-05-01T18:28:48.582Z,99896.94
2023-05-01T18:31:17.392Z,99926.97
2023-05-01T18:33:49.269Z,99924.31
2023-05-01T18:36:18.405Z,99926.88
2023-05-01T18:38:46.556Z,99929.53
2023-05-01T18:41:15.007Z,99928.56
2023-05-01T18:43:44.832Z,99932.91
2023-05-01T18:46:13.473Z,99930.13
2023-05-01T18:48:43.952Z,99939.19
2023-05-01T18:51:14.708Z,99940.31
2023-05-01T18:53:43.682Z,99943.31
2023-05-01T18:56:12.034Z,99951.91
2023-05-01T18:58:41.329Z,99940.53
2023-05-01T19:01:11.982Z,99954.91
2023-05-01T19:03:41.491Z,99951.03
2023-05-01T19:06:11.764Z,99954.03
2023-05-01T19:08:41.277Z,99957.81
2023-05-01T19:11:11.260Z,99954.41
2023-05-01T19:13:40.510Z,99957.19
2023-05-01T19:16:12.401Z,99955.00
2023-05-01T19:18:40.958Z,99953.66
2023-05-01T19:21:11.634Z,99953.66
2023-05-01T19:23:40.701Z,99953.03
2023-05-01T19:26:10.045Z,99953.41
2023-05-01T19:28:38.859Z,99960.66
2023-05-01T19:31:13.129Z,99954.59
2023-05-01T19:33:45.990Z,99945.78
2023-05-01T19:36:16.111Z,99957.81
2023-05-01T19:38:45.557Z,99955.28
2023-05-01T19:41:14.185Z,99953.63
2023-05-01T19:43:43.415Z,99954.31
2023-05-01T19:46:12.476Z,99957.94
2023-05-01T19:48:42.200Z,99951.94
2023-05-01T19:51:12.668Z,99953.13
2023-05-01T19:53:42.588Z,99948.78
2023-05-01T19:56:12.453Z,99956.75
2023-05-01T19:58:42.253Z,99965.69
2023-05-01T20:01:13.546Z,99966.16
2023-05-01T20:03:41.757Z,99956.97
2023-05-01T20:06:12.404Z,99964.47
2023-05-01T20:08:41.755Z,99957.47
2023-05-01T20:11:10.464Z,99965.78
2023-05-01T20:13:38.733Z,99956.69
2023-05-01T20:16:08.478Z,99957.09
2023-05-01T20:18:36.986Z,99951.28
2023-05-01T20:21:06.181Z,99962.66
2023-05-01T20:23:35.802Z,99965.88
2023-05-01T20:26:03.930Z,99961.63
2023-05-01T20:28:32.497Z,99958.34
2023-05-01T20:31:00.905Z,99962.72
2023-05-01T20:33:30.587Z,99966.56
2023-05-01T20:35:59.517Z,99955.75
2023-05-01T20:38:28.752Z,99965.66
2023-05-01T20:40:58.130Z,99958.13
2023-05-01T20:43:26.955Z,99956.44
2023-05-01T20:45:55.012Z,99960.28
2023-05-01T20:48:25.025Z,99962.41
2023-05-01T20:50:54.193Z,99958.78
2023-05-01T20:53:22.516Z,99962.41
2023-05-01T20:55:52.806Z,99969.88
2023-05-01T20:58:22.359Z,99973.69
2023-05-01T21:00:50.624Z,99970.28
2023-05-01T21:03:18.978Z,99969.06
2023-05-01T21:05:47.139Z,99972.00
2023-05-01T21:08:15.370Z,99970.53
2023-05-01T21:10:44.381Z,99974.41
2023-05-01T21:13:12.567Z,99980.91
2023-05-01T21:15:46.333Z,99984.72
2023-05-01T21:18:17.495Z,99973.84
2023-05-01T21:20:47.016Z,99971.81
2023-05-01T21:23:17.069Z,99984.00
2023-05-01T21:25:45.819Z,99979.88
2023-05-01T21:28:14.965Z,99986.25
2023-05-01T21:30:44.444Z,99983.28
2023-05-01T21:33:17.089Z,99985.81
2023-05-01T21:35:49.984Z,99989.75
2023-05-01T21:38:18.125Z,99997.47
2023-05-01T21:40:47.126Z,99997.09
2023-05-01T21:43:15.298Z,99989.00
2023-05-01T21:45:45.671Z,99989.75
2023-05-01T21:48:16.204Z,99992.00
2023-05-01T21:50:44.359Z,99990.50
2023-05-01T21:53:12.473Z,100001.56
2023-05-01T21:55:40.521Z,99997.94
2023-05-01T21:58:08.628Z,99994.31
2023-05-01T22:00:36.782Z,99983.19
2023-05-01T22:03:09.055Z,99992.00
2023-05-01T22:05:40.968Z,99987.97
2023-05-01T22:08:09.451Z,99996.88
2023-05-01T22:10:37.617Z,99991.06
2023-05-01T22:13:06.562Z,99995.19
2023-05-01T22:15:34.751Z,99992.66
2023-05-01T22:18:02.873Z,99986.72
2023-05-01T22:20:32.504Z,99985.03
2023-05-01T22:23:01.066Z,99982.47
2023-05-01T22:25:32.183Z,99983.34
2023-05-01T22:28:01.444Z,99985.97
2023-05-01T22:30:29.758Z,99978.75
2023-05-01T22:32:57.932Z,99981.41
2023-05-01T22:35:26.498Z,99983.34
2023-05-01T22:37:56.094Z,99965.50
2023-05-01T22:40:24.219Z,99975.06
2023-05-01T22:42:52.303Z,99976.88
2023-05-01T22:45:20.949Z,99980.13
2023-05-01T22:47:49.041Z,99975.13
2023-05-01T22:50:17.149Z,99980.78
2023-05-01T22:52:46.559Z,99970.47
2023-05-01T22:55:16.636Z,99977.38
2023-05-01T22:57:45.738Z,99973.13
2023-05-01T23:00:15.126Z,99978.00
2023-05-01T23:02:43.645Z,99972.59
2023-05-01T23:05:11.826Z,99975.25
2023-05-01T23:07:39.947Z,99972.50
2023-05-01T23:10:08.897Z,99971.97
2023-05-01T23:12:41.881Z,99972.06
2023-05-01T23:15:11.915Z,99977.13
2023-05-01T23:17:41.034Z,99972.28
2023-05-01T23:20:13.776Z,99971.22
2023-05-01T23:22:41.891Z,99970.81
2023-05-01T23:25:13.950Z,99970.28
2023-05-01T23:27:45.016Z,99977.47
2023-05-01T23:30:15.018Z,99974.72
2023-05-01T23:32:43.882Z,99971.84
2023-05-01T23:35:15.383Z,99972.28
2023-05-01T23:37:43.964Z,99974.41
2023-05-01T23:40:12.643Z,99962.13
2023-05-01T23:42:40.950Z,99980.69
2023-05-01T23:45:10.852Z,99955.53
2023-05-01T23:47:39.671Z,99972.94
2023-05-01T23:50:08.811Z,99976.31
2023-05-01T23:52:37.103Z,99970.06
2023-05-01T23:55:05.573Z,99960.31
2023-05-01T23:57:33.712Z,99976.88
